Time;durP1;ratioP1;P1;durP2;ratioP2;P2;SDS_P1;SDS_P2;PMS_P1;PMS_P2;Temp;Humidity;BMP_temperature;BMP_pressure;BME280_temperature;BME280_humidity;BME280_pressure;Samples;Min_cycle;Max_cycle;Signal;HPM_P1;HPM_P2
2023/08/29 00:00:41;;;;;;;2.47;1.52;;;15.70;99.90;;;;;;5056665;28;20017;-73
2023/08/29 00:03:07;;;;;;;2.58;1.35;;;15.80;99.90;;;;;;5051938;28;20367;-73
2023/08/29 00:05:33;;;;;;;1.85;1.58;;;15.80;99.90;;;;;;5055601;28;20024;-73
2023/08/29 00:07:58;;;;;;;4.80;1.83;;;15.70;99.90;;;;;;5054738;28;20073;-73
2023/08/29 00:10:24;;;;;;;2.55;1.80;;;15.70;99.90;;;;;;5048137;28;20482;-74
2023/08/29 00:12:49;;;;;;;2.58;1.45;;;15.70;99.90;;;;;;5050147;28;20029;-73
2023/08/29 00:15:15;;;;;;;2.15;1.20;;;15.70;99.90;;;;;;5049460;28;20033;-74
2023/08/29 00:17:40;;;;;;;3.28;1.33;;;15.70;99.90;;;;;;5049905;28;20136;-73
2023/08/29 00:20:06;;;;;;;2.85;1.65;;;15.70;99.90;;;;;;5063215;28;20048;-73
2023/08/29 00:22:32;;;;;;;1.98;1.38;;;15.60;99.90;;;;;;5080003;28;20025;-73
2023/08/29 00:24:58;;;;;;;1.25;1.15;;;15.60;99.90;;;;;;5084534;28;20027;-74
2023/08/29 00:27:24;;;;;;;1.95;1.63;;;15.60;99.90;;;;;;5068945;28;20091;-73
2023/08/29 00:29:49;;;;;;;2.55;1.63;;;15.60;99.90;;;;;;5067949;28;20074;-73
2023/08/29 00:32:15;;;;;;;2.42;1.50;;;15.60;99.90;;;;;;5069530;28;20122;-75
2023/08/29 00:34:41;;;;;;;2.40;1.90;;;15.50;99.90;;;;;;5068427;28;20773;-73
2023/08/29 00:37:06;;;;;;;3.90;2.15;;;15.50;99.90;;;;;;5049073;28;20462;-74
2023/08/29 00:39:32;;;;;;;5.53;1.75;;;15.50;99.90;;;;;;5047929;28;20024;-73
2023/08/29 00:41:57;;;;;;;2.20;1.48;;;15.50;99.90;;;;;;5062459;28;20025;-73
2023/08/29 00:44:25;;;;;;;1.90;1.50;;;15.50;99.90;;;;;;5047909;28;20159;-74
2023/08/29 00:46:51;;;;;;;5.35;1.50;;;15.40;99.90;;;;;;5049978;28;20062;-74
2023/08/29 00:49:22;;;;;;;2.40;1.60;;;15.40;99.90;;;;;;5049618;28;20025;-74
2023/08/29 00:51:48;;;;;;;2.28;1.70;;;15.40;99.90;;;;;;5051383;28;20025;-73
2023/08/29 00:54:17;;;;;;;2.35;1.42;;;15.40;99.90;;;;;;5049101;28;20037;-73
2023/08/29 00:56:43;;;;;;;1.88;1.63;;;15.40;99.90;;;;;;5049093;28;20032;-73
2023/08/29 00:59:09;;;;;;;5.05;1.17;;;15.30;99.90;;;;;;5063523;28;20025;-74
2023/08/29 01:01:35;;;;;;;1.55;1.20;;;15.30;99.90;;;;;;5068697;28;20470;-73
2023/08/29 01:04:01;;;;;;;1.70;1.20;;;15.20;99.90;;;;;;5068715;28;20048;-73
2023/08/29 01:06:27;;;;;;;2.13;1.60;;;15.20;99.90;;;;;;5060792;28;20017;-73
2023/08/29 01:08:53;;;;;;;2.08;1.50;;;15.20;99.90;;;;;;5050227;28;20492;-73
2023/08/29 01:12:00;;;;;;;2.33;1.75;;;15.20;99.90;;;;;;5061003;28;20017;-73
2023/08/29 01:14:42;;;;;;;2.67;1.88;;;15.10;99.90;;;;;;5044951;28;20029;-73
2023/08/29 01:17:18;;;;;;;1.90;1.45;;;15.10;99.90;;;;;;5028559;28;20103;-73
2023/08/29 01:19:50;;;;;;;1.60;1.10;;;15.10;99.90;;;;;;5045653;28;20436;-73
2023/08/29 01:22:36;;;;;;;2.20;1.42;;;15.00;99.90;;;;;;5045303;28;20036;-73
2023/08/29 01:25:20;;;;;;;1.85;1.63;;;15.00;99.90;;;;;;5044906;28;20083;-73
2023/08/29 01:27:46;;;;;;;2.90;1.52;;;15.00;99.90;;;;;;5029720;28;20423;-73
2023/08/29 01:30:13;;;;;;;2.08;1.70;;;15.00;99.90;;;;;;5029742;28;20021;-73
2023/08/29 01:32:40;;;;;;;3.35;1.27;;;15.00;99.90;;;;;;5046575;28;20397;-74
2023/08/29 01:35:07;;;;;;;2.88;1.30;;;15.00;99.90;;;;;;5045045;28;20085;-73
2023/08/29 01:37:32;;;;;;;2.22;1.35;;;14.90;99.90;;;;;;5045857;28;20158;-73
2023/08/29 01:39:58;;;;;;;2.42;1.27;;;14.90;99.90;;;;;;5046157;28;20104;-73
2023/08/29 01:42:23;;;;;;;3.10;1.52;;;14.90;99.90;;;;;;5048114;28;20139;-73
2023/08/29 01:44:49;;;;;;;1.83;1.73;;;14.90;99.90;;;;;;5049961;28;20068;-73
2023/08/29 01:47:15;;;;;;;2.05;1.80;;;14.90;99.90;;;;;;5050155;28;20025;-73
2023/08/29 01:49:41;;;;;;;3.00;1.75;;;14.90;99.90;;;;;;5049203;28;20028;-74
2023/08/29 01:52:07;;;;;;;3.75;2.10;;;14.80;99.90;;;;;;5043575;28;20116;-74
2023/08/29 01:54:32;;;;;;;3.97;1.33;;;14.80;99.90;;;;;;5060772;28;20123;-73
2023/08/29 01:57:00;;;;;;;4.97;2.30;;;14.80;99.90;;;;;;5072010;28;20378;-73
2023/08/29 01:59:27;;;;;;;5.22;1.80;;;14.80;99.90;;;;;;5070665;28;20048;-73
2023/08/29 02:01:53;;;;;;;2.10;1.55;;;14.80;99.90;;;;;;5071963;28;20470;-73
2023/08/29 02:04:18;;;;;;;3.58;1.17;;;14.80;99.90;;;;;;5071076;28;20031;-73
2023/08/29 02:06:44;;;;;;;2.70;1.45;;;14.80;99.90;;;;;;5068066;28;20049;-74
2023/08/29 02:09:09;;;;;;;3.92;1.38;;;14.80;99.90;;;;;;5068271;28;20013;-73
2023/08/29 02:11:35;;;;;;;3.20;2.08;;;14.70;99.90;;;;;;5062139;28;20441;-74
2023/08/29 02:14:00;;;;;;;3.70;1.50;;;14.70;99.90;;;;;;5052377;28;20071;-73
2023/08/29 02:16:26;;;;;;;1.90;1.67;;;14.70;99.90;;;;;;5051859;28;20503;-73
2023/08/29 02:18:52;;;;;;;1.88;1.40;;;14.60;99.90;;;;;;5051918;28;20028;-73
2023/08/29 02:21:18;;;;;;;2.42;1.20;;;14.60;99.90;;;;;;5050650;28;20489;-73
2023/08/29 02:23:43;;;;;;;2.70;1.42;;;14.60;99.90;;;;;;5051600;28;20025;-73
2023/08/29 02:26:09;;;;;;;3.38;1.30;;;14.60;99.90;;;;;;5051756;28;20516;-73
2023/08/29 02:28:36;;;;;;;3.58;1.75;;;14.50;99.90;;;;;;5051682;28;20025;-73
2023/08/29 02:31:06;;;;;;;1.95;1.58;;;14.50;99.90;;;;;;5051234;28;20090;-73
2023/08/29 02:33:35;;;;;;;2.95;1.50;;;14.50;99.90;;;;;;5064253;28;20109;-73
2023/08/29 02:36:00;;;;;;;2.17;1.40;;;14.50;99.90;;;;;;5051721;28;20025;-74
2023/08/29 02:38:26;;;;;;;1.55;1.27;;;14.40;99.90;;;;;;5051629;28;20089;-74
2023/08/29 02:40:52;;;;;;;2.75;1.67;;;14.40;99.90;;;;;;5051957;28;20523;-73
2023/08/29 02:43:17;;;;;;;0.95;0.85;;;14.40;99.90;;;;;;5051773;28;20587;-74
2023/08/29 02:45:43;;;;;;;2.85;1.48;;;14.40;99.90;;;;;;5051756;28;20025;-73
2023/08/29 02:48:09;;;;;;;3.63;2.03;;;14.30;99.90;;;;;;5054774;28;20101;-73
2023/08/29 02:50:36;;;;;;;2.60;1.70;;;14.30;99.90;;;;;;5070905;28;20032;-73
2023/08/29 02:53:02;;;;;;;2.35;1.63;;;14.30;99.90;;;;;;5053115;28;20021;-73
2023/08/29 02:55:28;;;;;;;2.22;1.40;;;14.30;99.90;;;;;;5051148;28;20547;-73
2023/08/29 02:57:54;;;;;;;2.45;1.55;;;14.30;99.90;;;;;;5051221;28;20033;-73
2023/08/29 03:00:19;;;;;;;2.83;1.30;;;14.20;99.90;;;;;;5051066;28;20047;-73
2023/08/29 03:02:45;;;;;;;2.00;1.42;;;14.30;99.90;;;;;;5051417;28;20025;-73
2023/08/29 03:05:11;;;;;;;3.25;1.63;;;14.20;99.90;;;;;;5051150;28;20060;-73
2023/08/29 03:07:36;;;;;;;1.98;1.25;;;14.10;99.90;;;;;;5063813;28;20032;-73
2023/08/29 03:10:02;;;;;;;1.55;1.10;;;14.20;99.90;;;;;;5050952;28;20083;-73
2023/08/29 03:12:28;;;;;;;2.50;1.60;;;14.20;99.90;;;;;;5054837;28;20016;-73
2023/08/29 03:14:54;;;;;;;1.83;1.55;;;14.20;99.90;;;;;;5058662;28;20112;-73
2023/08/29 03:17:21;;;;;;;2.88;1.40;;;14.10;99.90;;;;;;5067047;28;20016;-73
2023/08/29 03:19:47;;;;;;;2.15;1.35;;;14.10;99.90;;;;;;5070511;28;20055;-74
2023/08/29 03:22:13;;;;;;;3.25;1.50;;;14.10;99.90;;;;;;5065832;28;20009;-74
2023/08/29 03:24:39;;;;;;;1.70;1.42;;;14.10;99.90;;;;;;5050703;28;20044;-74
2023/08/29 03:27:05;;;;;;;2.03;1.60;;;14.10;99.90;;;;;;5050434;28;20466;-74
2023/08/29 03:29:30;;;;;;;3.30;1.48;;;14.00;99.90;;;;;;5050682;28;20025;-74
2023/08/29 03:31:56;;;;;;;1.60;1.50;;;14.00;99.90;;;;;;5050727;28;20025;-73
2023/08/29 03:34:21;;;;;;;1.70;1.38;;;14.00;99.90;;;;;;5049194;28;20027;-74
2023/08/29 03:36:47;;;;;;;3.58;1.75;;;14.00;99.90;;;;;;5054518;28;20016;-73
2023/08/29 03:39:12;;;;;;;2.95;1.73;;;14.00;99.90;;;;;;5070027;28;20375;-73
2023/08/29 03:41:38;;;;;;;1.85;1.13;;;13.90;99.90;;;;;;5069561;28;20024;-73
2023/08/29 03:44:05;;;;;;;5.05;1.67;;;13.90;99.90;;;;;;5069890;28;20024;-73
2023/08/29 03:46:31;;;;;;;2.13;1.75;;;13.90;99.90;;;;;;5068985;28;20016;-73
2023/08/29 03:48:56;;;;;;;2.17;1.73;;;13.90;99.90;;;;;;5069938;28;20028;-73
2023/08/29 03:51:22;;;;;;;1.67;1.40;;;13.90;99.90;;;;;;5055809;28;20095;-73
2023/08/29 03:53:48;;;;;;;3.22;1.50;;;13.90;99.90;;;;;;5070150;28;20025;-73
2023/08/29 03:56:13;;;;;;;3.97;1.83;;;13.80;99.90;;;;;;5055418;28;20032;-73
2023/08/29 03:58:39;;;;;;;3.13;1.50;;;13.80;99.90;;;;;;5060396;28;20032;-73
2023/08/29 04:01:05;;;;;;;1.92;1.55;;;13.80;99.90;;;;;;5056198;28;20091;-73
2023/08/29 04:03:31;;;;;;;3.55;1.40;;;13.80;99.90;;;;;;5070024;28;20028;-73
2023/08/29 04:05:57;;;;;;;4.90;2.28;;;13.80;99.90;;;;;;5051656;28;20024;-74
2023/08/29 04:08:23;;;;;;;3.70;1.77;;;13.70;99.90;;;;;;5049843;28;20083;-74
2023/08/29 04:10:49;;;;;;;3.20;2.28;;;13.70;99.90;;;;;;5050140;28;20481;-74
2023/08/29 04:13:14;;;;;;;4.75;1.73;;;13.70;99.90;;;;;;5049700;28;20025;-73
2023/08/29 04:15:41;;;;;;;1.73;1.63;;;13.70;99.90;;;;;;5049138;28;20610;-73
2023/08/29 04:18:10;;;;;;;3.13;1.88;;;13.60;99.90;;;;;;5049767;28;20040;-74
2023/08/29 04:20:36;;;;;;;1.70;1.60;;;13.60;99.90;;;;;;5054404;28;20055;-73
2023/08/29 04:23:06;;;;;;;2.05;1.85;;;13.60;99.90;;;;;;5058056;28;20075;-73
2023/08/29 04:25:36;;;;;;;2.53;2.03;;;13.60;99.90;;;;;;5038034;28;20108;-74
2023/08/29 04:28:03;;;;;;;1.67;1.58;;;13.50;99.90;;;;;;5057842;28;20094;-74
2023/08/29 04:30:29;;;;;;;2.30;1.48;;;13.50;99.90;;;;;;5061286;28;20221;-74
2023/08/29 04:32:55;;;;;;;2.05;1.80;;;13.50;99.90;;;;;;5066920;28;20063;-73
2023/08/29 04:35:21;;;;;;;2.17;1.83;;;13.50;99.90;;;;;;5064633;28;20043;-73
2023/08/29 04:37:51;;;;;;;4.10;2.00;;;13.50;99.90;;;;;;5067384;28;20063;-73
2023/08/29 04:40:18;;;;;;;4.32;1.77;;;13.40;99.90;;;;;;5062812;28;20029;-73
2023/08/29 04:42:47;;;;;;;2.38;2.15;;;13.40;99.90;;;;;;5065577;28;20083;-73
2023/08/29 04:45:13;;;;;;;1.90;1.70;;;13.40;99.90;;;;;;5063720;28;20021;-74
2023/08/29 04:47:39;;;;;;;1.90;1.50;;;13.40;99.90;;;;;;5060727;28;20081;-73
2023/08/29 04:50:05;;;;;;;3.53;1.83;;;13.40;99.90;;;;;;5054297;28;20036;-73
2023/08/29 04:52:31;;;;;;;2.55;1.40;;;13.30;99.90;;;;;;5049388;28;20505;-73
2023/08/29 04:54:58;;;;;;;1.83;1.73;;;13.30;99.90;;;;;;5049300;28;20049;-73
2023/08/29 04:57:23;;;;;;;2.92;2.05;;;13.30;99.90;;;;;;5049264;28;20433;-73
2023/08/29 04:59:49;;;;;;;4.38;2.08;;;13.30;99.90;;;;;;5047694;28;20029;-73
2023/08/29 05:02:15;;;;;;;3.22;2.85;;;13.30;99.90;;;;;;5048695;28;20032;-74
2023/08/29 05:04:46;;;;;;;3.75;2.70;;;13.30;99.90;;;;;;5049092;28;20048;-73
2023/08/29 05:07:11;;;;;;;3.78;2.50;;;13.30;99.90;;;;;;5049065;28;20024;-73
2023/08/29 05:09:37;;;;;;;3.40;3.10;;;13.30;99.90;;;;;;5064866;28;20029;-73
2023/08/29 05:12:04;;;;;;;3.15;2.72;;;13.30;99.90;;;;;;5049388;28;20029;-73
2023/08/29 05:14:29;;;;;;;3.05;2.80;;;13.30;99.90;;;;;;5048636;28;20028;-73
2023/08/29 05:16:55;;;;;;;3.90;2.92;;;13.30;99.90;;;;;;5050377;28;20079;-74
2023/08/29 05:19:20;;;;;;;4.22;3.15;;;13.30;99.90;;;;;;5060832;28;20028;-74
2023/08/29 05:21:46;;;;;;;3.17;2.88;;;13.30;99.90;;;;;;5062234;28;20405;-74
2023/08/29 05:24:11;;;;;;;7.35;3.10;;;13.40;99.90;;;;;;5055822;28;20470;-73
2023/08/29 05:26:37;;;;;;;4.28;2.63;;;13.30;99.90;;;;;;5061118;28;20509;-74
2023/08/29 05:29:03;;;;;;;4.32;3.33;;;13.40;99.90;;;;;;5056801;28;20033;-73
2023/08/29 05:31:29;;;;;;;4.07;2.40;;;13.40;99.90;;;;;;5060639;28;20469;-74
2023/08/29 05:33:55;;;;;;;2.50;2.30;;;13.40;99.90;;;;;;5057173;28;20295;-73
2023/08/29 05:36:20;;;;;;;2.92;2.10;;;13.50;99.90;;;;;;5059649;28;20381;-73
2023/08/29 05:38:47;;;;;;;2.67;2.30;;;13.50;99.90;;;;;;5057360;28;20029;-74
2023/08/29 05:41:13;;;;;;;2.38;1.95;;;13.50;99.90;;;;;;5060049;28;20024;-73
2023/08/29 05:43:38;;;;;;;3.83;2.58;;;13.50;99.90;;;;;;5056773;28;20033;-73
2023/08/29 05:46:04;;;;;;;4.38;2.22;;;13.50;99.90;;;;;;5057496;28;20025;-73
2023/08/29 05:48:29;;;;;;;2.47;2.25;;;13.50;99.90;;;;;;5057669;28;20032;-73
2023/08/29 05:50:55;;;;;;;2.72;2.53;;;13.50;99.90;;;;;;5055684;28;20029;-74
2023/08/29 05:53:20;;;;;;;5.22;2.67;;;13.50;99.90;;;;;;5055676;28;20029;-74
2023/08/29 05:55:47;;;;;;;2.90;2.58;;;13.50;99.90;;;;;;5060953;28;20052;-69
2023/08/29 05:58:12;;;;;;;4.00;2.85;;;13.50;99.90;;;;;;5053058;28;20020;-69
2023/08/29 06:00:38;;;;;;;3.47;3.05;;;13.50;99.90;;;;;;5056141;28;20055;-69
2023/08/29 06:03:06;;;;;;;4.40;2.85;;;13.60;99.90;;;;;;5057701;28;20025;-69
2023/08/29 06:05:32;;;;;;;4.82;2.42;;;13.60;99.90;;;;;;5052845;28;20128;-69
2023/08/29 06:08:01;;;;;;;2.85;2.60;;;13.60;99.90;;;;;;5061933;28;20434;-69
2023/08/29 06:10:28;;;;;;;2.85;2.42;;;13.60;99.90;;;;;;5056644;28;20032;-69
2023/08/29 06:12:53;;;;;;;2.38;2.05;;;13.60;99.90;;;;;;5061951;28;20039;-69
2023/08/29 06:15:19;;;;;;;2.65;1.80;;;13.70;99.90;;;;;;5056850;28;20104;-69
2023/08/29 06:17:45;;;;;;;2.30;1.90;;;13.70;99.90;;;;;;5056779;28;20029;-69
2023/08/29 06:20:11;;;;;;;4.75;2.40;;;13.70;99.90;;;;;;5068748;28;20052;-69
2023/08/29 06:22:37;;;;;;;1.95;1.67;;;13.80;99.90;;;;;;5062502;28;20065;-69
2023/08/29 06:25:04;;;;;;;2.40;2.05;;;13.80;99.90;;;;;;5067046;28;20009;-69
2023/08/29 06:27:29;;;;;;;4.90;2.50;;;13.90;99.90;;;;;;5051488;28;20022;-69
2023/08/29 06:29:55;;;;;;;3.53;2.30;;;14.00;99.90;;;;;;5052105;28;20028;-69
2023/08/29 06:32:21;;;;;;;2.45;2.03;;;14.10;99.90;;;;;;5051226;28;20379;-69
2023/08/29 06:34:46;;;;;;;3.90;2.13;;;14.20;99.90;;;;;;5068784;28;20016;-69
2023/08/29 06:37:12;;;;;;;2.85;2.25;;;14.30;99.90;;;;;;5070914;28;20100;-69
2023/08/29 06:39:37;;;;;;;2.90;2.38;;;14.40;99.90;;;;;;5053011;28;20478;-69
2023/08/29 06:42:03;;;;;;;2.78;2.38;;;14.40;99.90;;;;;;5051757;28;20021;-69
2023/08/29 06:44:30;;;;;;;2.42;2.15;;;14.60;99.90;;;;;;5051707;28;20037;-69
2023/08/29 06:46:55;;;;;;;2.10;1.90;;;14.70;99.90;;;;;;5051873;28;20078;-69
2023/08/29 06:49:21;;;;;;;2.90;1.75;;;14.80;99.90;;;;;;5051680;28;20407;-69
2023/08/29 06:51:46;;;;;;;4.65;2.00;;;15.00;99.90;;;;;;5062777;28;20080;-69
2023/08/29 06:54:12;;;;;;;2.00;1.80;;;15.00;99.90;;;;;;5065577;28;20557;-70
2023/08/29 06:56:37;;;;;;;2.30;1.50;;;15.20;99.90;;;;;;5059444;28;20032;-69
2023/08/29 06:59:03;;;;;;;2.03;1.77;;;15.30;99.90;;;;;;5056258;28;20017;-69
2023/08/29 07:01:29;;;;;;;2.33;1.58;;;15.40;99.90;;;;;;5058026;28;20560;-69
2023/08/29 07:03:55;;;;;;;3.47;1.70;;;15.50;99.90;;;;;;5065644;28;20111;-70
2023/08/29 07:06:20;;;;;;;2.65;1.48;;;15.70;99.90;;;;;;5057407;28;20377;-70
2023/08/29 07:08:47;;;;;;;3.17;2.05;;;15.80;99.90;;;;;;5065194;28;20497;-70
2023/08/29 07:11:13;;;;;;;2.03;1.83;;;15.90;99.90;;;;;;5061699;28;20075;-69
2023/08/29 07:13:39;;;;;;;2.67;1.63;;;16.00;99.90;;;;;;5056079;28;20477;-69
2023/08/29 07:16:05;;;;;;;4.32;1.50;;;16.10;99.90;;;;;;5061966;28;20474;-69
2023/08/29 07:18:32;;;;;;;8.13;2.38;;;16.10;99.90;;;;;;5065180;28;20389;-70
2023/08/29 07:20:59;;;;;;;2.90;1.77;;;16.30;99.90;;;;;;5062444;28;20024;-70
2023/08/29 07:23:25;;;;;;;1.80;1.50;;;16.30;99.90;;;;;;5064605;28;20021;-69
2023/08/29 07:25:50;;;;;;;1.90;1.20;;;16.50;99.90;;;;;;5062367;28;20040;-69
2023/08/29 07:28:16;;;;;;;2.60;1.50;;;16.50;99.90;;;;;;5064993;28;20450;-69
2023/08/29 07:30:47;;;;;;;3.70;1.30;;;16.60;99.90;;;;;;5062557;28;20733;-69
2023/08/29 07:33:14;;;;;;;2.22;1.02;;;16.70;99.90;;;;;;5064568;28;20031;-69
2023/08/29 07:35:41;;;;;;;1.52;0.98;;;16.80;99.90;;;;;;5062357;28;20021;-69
2023/08/29 07:38:07;;;;;;;2.13;1.52;;;16.90;99.90;;;;;;5052635;28;20501;-69
2023/08/29 07:40:33;;;;;;;1.15;0.90;;;17.00;99.90;;;;;;5057427;28;20055;-69
2023/08/29 07:43:01;;;;;;;3.85;1.30;;;17.10;99.90;;;;;;5056487;28;20103;-69
2023/08/29 07:45:27;;;;;;;1.88;1.17;;;17.20;99.90;;;;;;5053865;28;20017;-69
2023/08/29 07:47:52;;;;;;;4.13;1.25;;;17.30;99.90;;;;;;5050162;28;20386;-70
2023/08/29 07:50:18;;;;;;;4.90;1.40;;;17.30;99.90;;;;;;5058681;28;20178;-69
2023/08/29 07:52:44;;;;;;;5.07;1.35;;;17.40;99.90;;;;;;5060625;28;20036;-69
2023/08/29 07:55:09;;;;;;;4.18;1.30;;;17.50;99.90;;;;;;5057204;28;20122;-70
2023/08/29 07:57:35;;;;;;;1.80;1.17;;;17.70;99.90;;;;;;5068856;28;20455;-70
2023/08/29 08:00:00;;;;;;;1.92;0.95;;;17.70;99.90;;;;;;5070067;28;20111;-70
2023/08/29 08:02:26;;;;;;;1.95;1.00;;;17.80;99.90;;;;;;5054143;28;20135;-70
2023/08/29 08:04:51;;;;;;;3.28;0.90;;;17.80;99.90;;;;;;5050252;28;20377;-71
2023/08/29 08:07:17;;;;;;;4.97;1.52;;;17.90;99.90;;;;;;5049710;28;20023;-71
2023/08/29 08:09:42;;;;;;;3.50;1.20;;;17.90;99.90;;;;;;5049573;28;20040;-70
2023/08/29 08:12:08;;;;;;;4.72;1.58;;;18.00;99.90;;;;;;5057406;28;20071;-71
2023/08/29 08:14:34;;;;;;;3.63;1.27;;;18.10;99.90;;;;;;5048162;28;20116;-70
2023/08/29 08:16:59;;;;;;;1.35;1.13;;;18.10;99.90;;;;;;5049887;28;20029;-70
2023/08/29 08:19:25;;;;;;;1.55;0.93;;;18.20;99.90;;;;;;5067232;28;20017;-70
2023/08/29 08:21:51;;;;;;;1.98;1.50;;;18.30;99.90;;;;;;5068926;28;20056;-70
2023/08/29 08:24:17;;;;;;;2.63;0.77;;;18.30;99.90;;;;;;5062728;28;20460;-70
2023/08/29 08:26:43;;;;;;;1.95;1.60;;;18.30;99.90;;;;;;5049545;28;20105;-70
2023/08/29 08:29:09;;;;;;;2.30;1.20;;;18.40;99.90;;;;;;5049415;28;20017;-70
2023/08/29 08:31:34;;;;;;;4.45;1.25;;;18.40;99.90;;;;;;5060347;28;20028;-69
2023/08/29 08:34:00;;;;;;;3.53;1.27;;;18.50;99.90;;;;;;5069224;28;20134;-70
2023/08/29 08:36:26;;;;;;;3.53;1.38;;;18.50;99.90;;;;;;5068819;28;20029;-70
2023/08/29 08:38:51;;;;;;;4.28;2.00;;;18.50;99.90;;;;;;5064317;28;20382;-70
2023/08/29 08:41:19;;;;;;;3.55;1.70;;;18.60;99.90;;;;;;5049898;28;20025;-70
2023/08/29 08:43:45;;;;;;;2.85;1.60;;;18.60;99.90;;;;;;5049616;28;20033;-70
2023/08/29 08:46:14;;;;;;;3.17;1.40;;;18.60;99.90;;;;;;5049618;28;20486;-70
2023/08/29 08:48:40;;;;;;;3.40;1.50;;;18.70;99.90;;;;;;5062385;28;20021;-70
2023/08/29 08:51:06;;;;;;;3.63;1.63;;;18.70;99.90;;;;;;5048652;28;20025;-70
2023/08/29 08:53:33;;;;;;;2.88;1.25;;;18.80;99.90;;;;;;5049502;28;20505;-70
2023/08/29 08:55:59;;;;;;;3.30;1.60;;;18.80;99.90;;;;;;5051104;28;20390;-70
2023/08/29 08:58:25;;;;;;;2.72;1.50;;;18.90;99.90;;;;;;5067503;28;20412;-70
2023/08/29 09:00:51;;;;;;;3.20;1.17;;;19.00;99.90;;;;;;5067976;28;20046;-70
2023/08/29 09:03:17;;;;;;;1.20;0.93;;;19.10;99.90;;;;;;5068467;28;20036;-70
2023/08/29 09:05:42;;;;;;;2.40;1.00;;;19.10;99.90;;;;;;5067114;28;20024;-70
2023/08/29 09:08:08;;;;;;;3.05;0.65;;;19.20;99.90;;;;;;5068531;28;20048;-70
2023/08/29 09:10:38;;;;;;;2.75;0.80;;;19.20;99.90;;;;;;5067567;28;20020;-70
2023/08/29 09:13:03;;;;;;;2.65;1.20;;;19.20;99.90;;;;;;5068544;28;20469;-70
2023/08/29 09:15:29;;;;;;;2.80;1.17;;;19.30;99.90;;;;;;5067380;28;20037;-70
2023/08/29 09:17:55;;;;;;;6.22;1.75;;;19.40;99.90;;;;;;5068472;28;20024;-70
2023/08/29 09:20:22;;;;;;;1.30;0.90;;;19.40;99.90;;;;;;5067004;28;20022;-70
2023/08/29 09:22:48;;;;;;;2.08;1.17;;;19.50;99.90;;;;;;5066858;28;20080;-70
2023/08/29 09:25:13;;;;;;;2.67;1.40;;;19.60;99.90;;;;;;5068299;28;20024;-70
2023/08/29 09:27:44;;;;;;;3.08;0.70;;;19.60;99.80;;;;;;5068318;28;20031;-70
2023/08/29 09:30:11;;;;;;;3.30;1.10;;;19.70;99.60;;;;;;5067926;28;20474;-70
2023/08/29 09:32:45;;;;;;;2.03;1.08;;;19.70;99.40;;;;;;5068144;28;20028;-70
2023/08/29 09:35:15;;;;;;;1.50;0.70;;;19.80;99.50;;;;;;5067087;28;20579;-70
2023/08/29 09:37:47;;;;;;;3.50;0.80;;;19.80;99.20;;;;;;5067865;28;20025;-70
2023/08/29 09:40:23;;;;;;;1.50;0.70;;;19.90;99.10;;;;;;5067295;28;20020;-70
2023/08/29 09:42:57;;;;;;;1.00;0.70;;;20.00;99.00;;;;;;5067297;28;20025;-70
2023/08/29 09:45:23;;;;;;;2.83;0.70;;;20.10;98.80;;;;;;5068005;28;20021;-70
2023/08/29 09:47:52;;;;;;;2.10;0.43;;;20.20;98.80;;;;;;5066776;28;20032;-70
2023/08/29 09:50:19;;;;;;;1.65;0.70;;;20.30;98.60;;;;;;5058532;28;20108;-70
2023/08/29 09:52:45;;;;;;;2.22;0.80;;;20.50;98.50;;;;;;5061906;28;20028;-70
2023/08/29 09:55:13;;;;;;;2.53;0.80;;;20.50;98.00;;;;;;5048797;28;20119;-70
2023/08/29 09:57:40;;;;;;;2.47;1.00;;;20.60;97.90;;;;;;5048997;28;20414;-70
2023/08/29 10:00:09;;;;;;;3.38;1.10;;;20.70;97.90;;;;;;5048972;28;20108;-70
2023/08/29 10:02:35;;;;;;;3.40;1.17;;;20.80;97.90;;;;;;5048862;28;20031;-70
2023/08/29 10:05:08;;;;;;;1.90;0.90;;;21.00;97.50;;;;;;5062240;28;20016;-70
2023/08/29 10:07:43;;;;;;;3.15;1.20;;;21.10;97.40;;;;;;5058273;28;20020;-70
2023/08/29 10:10:10;;;;;;;3.15;1.02;;;21.30;97.30;;;;;;5071902;28;20377;-70
2023/08/29 10:12:37;;;;;;;2.90;1.27;;;21.40;97.20;;;;;;5071311;28;20359;-70
2023/08/29 10:15:04;;;;;;;1.77;1.08;;;21.50;97.00;;;;;;5071804;28;20044;-71
2023/08/29 10:17:31;;;;;;;3.63;1.50;;;21.70;96.70;;;;;;5068639;28;20103;-71
2023/08/29 10:19:59;;;;;;;2.45;1.10;;;21.80;96.30;;;;;;5071088;28;20056;-70
2023/08/29 10:22:28;;;;;;;1.42;1.13;;;22.00;96.30;;;;;;5069644;28;20028;-70
2023/08/29 10:24:57;;;;;;;1.75;1.17;;;22.20;96.00;;;;;;5070174;28;20074;-70
2023/08/29 10:27:23;;;;;;;2.53;1.40;;;22.30;95.40;;;;;;5070666;28;20077;-70
2023/08/29 10:29:48;;;;;;;2.05;1.17;;;22.50;95.10;;;;;;5070605;28;20017;-70
2023/08/29 10:32:14;;;;;;;1.63;1.20;;;22.60;95.10;;;;;;5070409;28;20013;-71
2023/08/29 10:34:40;;;;;;;1.60;0.95;;;22.60;94.70;;;;;;5070011;28;20051;-70
2023/08/29 10:37:18;;;;;;;2.53;1.45;;;22.60;94.60;;;;;;5071104;28;20221;-71
2023/08/29 10:39:44;;;;;;;3.38;1.80;;;22.40;94.40;;;;;;5070041;28;20091;-70
2023/08/29 10:42:13;;;;;;;4.65;1.60;;;22.20;94.50;;;;;;5071163;28;20092;-70
2023/08/29 10:44:40;;;;;;;2.63;1.77;;;22.10;94.70;;;;;;5069922;28;20113;-70
2023/08/29 10:47:27;;;;;;;2.47;1.80;;;21.80;95.00;;;;;;5070364;28;20021;-70
2023/08/29 10:50:05;;;;;;;2.65;2.22;;;21.70;95.30;;;;;;5069543;28;20097;-70
2023/08/29 10:52:41;;;;;;;4.18;1.55;;;21.50;95.40;;;;;;5070931;28;20024;-70
2023/08/29 10:55:22;;;;;;;2.50;1.50;;;21.40;95.50;;;;;;5047617;28;20396;-70
2023/08/29 10:57:51;;;;;;;3.45;1.65;;;21.30;95.70;;;;;;5070834;28;20064;-70
2023/08/29 11:00:34;;;;;;;3.60;1.65;;;21.20;95.80;;;;;;5070982;28;20028;-70
2023/08/29 11:03:00;;;;;;;4.78;1.67;;;21.20;95.80;;;;;;5070490;28;20112;-70
2023/08/29 11:05:27;;;;;;;3.88;1.70;;;21.20;95.90;;;;;;5071041;28;20123;-70
2023/08/29 11:07:53;;;;;;;3.08;1.40;;;21.20;96.00;;;;;;5069123;28;20024;-70
2023/08/29 11:10:22;;;;;;;5.38;1.95;;;21.20;96.10;;;;;;5070738;28;20044;-71
2023/08/29 11:13:09;;;;;;;3.72;1.95;;;21.20;96.00;;;;;;5070546;28;20044;-70
2023/08/29 11:15:49;;;;;;;2.90;1.98;;;21.30;96.10;;;;;;5069553;28;20027;-70
2023/08/29 11:18:26;;;;;;;2.55;1.75;;;21.40;96.00;;;;;;5070500;28;20102;-70
2023/08/29 11:20:55;;;;;;;3.60;2.20;;;21.40;96.10;;;;;;5069804;28;20039;-72
2023/08/29 11:23:24;;;;;;;4.75;1.90;;;21.50;95.70;;;;;;5069199;28;20024;-70
2023/08/29 11:25:51;;;;;;;4.22;1.95;;;21.50;95.60;;;;;;5045557;28;20094;-71
2023/08/29 11:28:19;;;;;;;3.90;1.75;;;21.60;95.50;;;;;;5068766;28;20032;-70
2023/08/29 11:30:46;;;;;;;4.75;1.90;;;21.70;95.30;;;;;;5069289;28;20120;-70
2023/08/29 11:33:12;;;;;;;2.50;1.55;;;21.80;95.30;;;;;;5083868;28;20037;-70
2023/08/29 11:35:37;;;;;;;4.25;2.33;;;21.90;95.30;;;;;;5069088;28;20108;-70
2023/08/29 11:38:05;;;;;;;6.53;2.40;;;22.00;95.40;;;;;;5083467;28;20112;-70
2023/08/29 11:40:32;;;;;;;3.00;2.00;;;22.10;95.40;;;;;;5069058;28;20031;-71
2023/08/29 11:42:58;;;;;;;3.72;2.45;;;22.10;95.20;;;;;;5067137;28;20029;-70
2023/08/29 11:45:24;;;;;;;3.67;2.20;;;22.20;94.90;;;;;;5066594;28;20386;-70
2023/08/29 11:47:50;;;;;;;4.22;2.00;;;22.30;94.80;;;;;;5066425;28;20126;-70
2023/08/29 11:50:16;;;;;;;3.08;2.13;;;22.30;94.80;;;;;;5069328;28;20100;-70
2023/08/29 11:52:42;;;;;;;3.85;2.75;;;22.40;94.70;;;;;;5055062;28;20496;-70
2023/08/29 11:55:10;;;;;;;3.42;2.33;;;22.40;94.60;;;;;;5050382;28;20413;-70
2023/08/29 11:57:38;;;;;;;3.17;2.20;;;22.40;94.70;;;;;;5050129;28;20033;-70
2023/08/29 12:00:08;;;;;;;2.53;2.25;;;22.50;94.60;;;;;;5050308;28;20029;-70
2023/08/29 12:02:33;;;;;;;3.17;2.30;;;22.40;94.40;;;;;;5050757;28;20100;-70
2023/08/29 12:04:59;;;;;;;4.43;2.25;;;22.30;94.40;;;;;;5051068;28;20099;-70
2023/08/29 12:07:31;;;;;;;3.83;1.95;;;22.30;94.60;;;;;;5051277;28;20097;-70
2023/08/29 12:10:14;;;;;;;4.53;2.95;;;22.30;94.20;;;;;;5050773;28;20025;-71
2023/08/29 12:12:40;;;;;;;3.60;2.33;;;22.30;94.20;;;;;;5049691;28;20036;-70
2023/08/29 12:15:14;;;;;;;4.18;2.88;;;22.20;94.10;;;;;;5050466;28;20027;-70
2023/08/29 12:17:44;;;;;;;3.58;2.70;;;22.10;94.10;;;;;;5051112;28;20036;-70
2023/08/29 12:20:13;;;;;;;3.53;2.85;;;22.10;94.40;;;;;;5052749;28;20032;-70
2023/08/29 12:22:50;;;;;;;2.50;2.30;;;22.10;94.40;;;;;;5050745;28;20029;-70
2023/08/29 12:25:15;;;;;;;3.15;1.70;;;22.10;94.70;;;;;;5052080;28;20013;-70
2023/08/29 12:27:44;;;;;;;2.20;1.88;;;22.10;94.30;;;;;;5050575;28;20494;-70
2023/08/29 12:30:13;;;;;;;3.15;2.13;;;22.10;93.90;;;;;;5052285;28;20021;-70
2023/08/29 12:32:39;;;;;;;2.65;2.42;;;22.20;93.80;;;;;;5050694;28;20540;-70
2023/08/29 12:35:06;;;;;;;2.00;1.10;;;22.20;93.70;;;;;;5052872;28;20025;-70
2023/08/29 12:37:32;;;;;;;5.75;1.15;;;22.30;93.40;;;;;;5051034;28;20100;-70
2023/08/29 12:39:58;;;;;;;1.50;1.10;;;22.30;92.90;;;;;;5052325;28;20024;-70
2023/08/29 12:42:24;;;;;;;4.00;2.50;;;22.40;92.80;;;;;;5050368;28;20017;-70
2023/08/29 12:44:50;;;;;;;2.10;1.90;;;22.40;92.70;;;;;;5052360;28;20055;-70
2023/08/29 12:47:15;;;;;;;2.05;1.58;;;22.50;92.80;;;;;;5050975;28;20095;-71